24°C Temp
20°C Dewpoint
% Humidity
Temperature
14 KM/H
9 MPH
8 KTS
40°
North East

Wind Speed
Clear
Conditions
Pressure 1011.92 (hPa) - 29.88 (in)
Visibility 6.2 (mi) - 10.0 (km)

Current Conditions
YWLM
Location 18(km)
Metar :YWLM 251000Z 04008KT CAVOK 24/20 Q1012
Tue 25th February 21:00 pm

Airport
  Metar Aviation API Data Provided by https://www.checkwx.com/ PHP scripts by weather34.com ©2020